createdAt,value
2022-09-12T00:02:19.606Z,2.30
2022-09-12T00:04:50.325Z,2.30
2022-09-12T00:07:20.384Z,1.90
2022-09-12T00:09:51.773Z,1.80
2022-09-12T00:12:21.831Z,2.00
2022-09-12T00:14:51.598Z,2.40
2022-09-12T00:17:22.488Z,2.40
2022-09-12T00:19:55.056Z,2.40
2022-09-12T00:22:25.959Z,2.20
2022-09-12T00:24:57.385Z,2.90
2022-09-12T00:27:26.936Z,2.20
2022-09-12T00:29:57.098Z,2.80
2022-09-12T00:32:28.488Z,3.00
2022-09-12T00:35:00.050Z,2.40
2022-09-12T00:37:35.209Z,2.30
2022-09-12T00:40:06.711Z,2.60
2022-09-12T00:42:40.025Z,2.60
2022-09-12T00:45:25.186Z,2.90
2022-09-12T00:47:59.250Z,2.40
2022-09-12T00:50:34.873Z,2.30
2022-09-12T00:53:09.046Z,2.40
2022-09-12T00:55:46.906Z,2.50
2022-09-12T00:58:19.882Z,2.00
2022-09-12T01:00:50.331Z,1.90
2022-09-12T01:03:23.155Z,2.00
2022-09-12T01:05:58.969Z,2.60
2022-09-12T01:08:30.129Z,1.90
2022-09-12T01:11:01.148Z,1.50
2022-09-12T01:13:35.864Z,2.20
2022-09-12T01:16:09.219Z,2.20
2022-09-12T01:18:52.080Z,2.30
2022-09-12T01:21:35.887Z,2.20
2022-09-12T01:24:28.165Z,2.10
2022-09-12T01:27:23.843Z,2.50
2022-09-12T01:30:26.578Z,2.70
2022-09-12T01:32:58.406Z,2.40
2022-09-12T01:36:07.969Z,2.60
2022-09-12T01:38:47.593Z,2.70
2022-09-12T01:41:34.877Z,2.70
2022-09-12T01:44:11.476Z,3.00
2022-09-12T01:47:03.009Z,2.70
2022-09-12T01:49:38.226Z,2.40
2022-09-12T01:52:28.888Z,2.10
2022-09-12T01:55:17.975Z,2.70
2022-09-12T01:58:22.620Z,2.40
2022-09-12T02:00:54.738Z,1.60
2022-09-12T02:03:54.877Z,2.30
2022-09-12T02:09:06.575Z,2.50
2022-09-12T02:11:43.146Z,2.40
2022-09-12T02:14:25.976Z,2.60
2022-09-12T02:17:11.548Z,2.60
2022-09-12T02:19:47.648Z,2.40
2022-09-12T02:22:21.189Z,2.20
2022-09-12T02:24:57.388Z,2.30
2022-09-12T02:27:34.905Z,2.60
2022-09-12T02:30:08.682Z,2.60
2022-09-12T02:33:02.724Z,3.80
2022-09-12T02:36:00.219Z,2.80
2022-09-12T02:38:50.397Z,2.80
2022-09-12T02:41:21.648Z,3.00
2022-09-12T02:43:54.196Z,2.80
2022-09-12T02:46:47.877Z,2.40
2022-09-12T02:49:18.350Z,4.10
2022-09-12T02:51:49.655Z,3.70
2022-09-12T02:54:20.929Z,2.80
2022-09-12T02:56:51.262Z,2.50
2022-09-12T02:59:24.429Z,2.60
2022-09-12T03:02:04.915Z,2.50
2022-09-12T03:04:46.293Z,2.90
2022-09-12T03:07:58.228Z,3.30
2022-09-12T03:10:49.152Z,2.60
2022-09-12T03:13:40.225Z,2.50
2022-09-12T03:16:41.669Z,3.10
2022-09-12T03:19:28.200Z,2.70
2022-09-12T03:22:23.226Z,2.30
2022-09-12T03:24:56.119Z,2.60
2022-09-12T03:27:39.502Z,2.60
2022-09-12T03:30:11.690Z,2.60
2022-09-12T03:32:46.104Z,3.50
2022-09-12T03:35:22.691Z,3.30
2022-09-12T03:37:54.115Z,3.00
2022-09-12T03:40:23.815Z,3.30
2022-09-12T03:42:52.903Z,2.90
2022-09-12T03:45:22.469Z,2.60
2022-09-12T03:47:52.288Z,2.50
2022-09-12T03:50:22.409Z,3.10
2022-09-12T03:55:21.472Z,2.90
2022-09-12T03:57:54.163Z,3.50
2022-09-12T04:00:23.844Z,3.50
2022-09-12T04:02:57.856Z,3.30
2022-09-12T04:05:27.046Z,2.20
2022-09-12T04:07:57.034Z,2.70
2022-09-12T04:10:26.578Z,2.60
2022-09-12T04:12:55.571Z,2.20
2022-09-12T04:15:24.969Z,2.00
2022-09-12T04:17:54.269Z,1.90
2022-09-12T04:20:24.593Z,2.40
2022-09-12T04:25:24.407Z,3.60
2022-09-12T04:27:53.416Z,3.30
2022-09-12T04:30:22.440Z,3.30
2022-09-12T04:32:52.147Z,2.50
2022-09-12T04:35:21.516Z,2.00
2022-09-12T04:37:50.713Z,2.40
2022-09-12T04:40:20.124Z,2.60
2022-09-12T04:42:49.201Z,3.00
2022-09-12T04:45:18.431Z,3.10
2022-09-12T04:47:47.200Z,2.50
2022-09-12T04:50:18.001Z,2.80
2022-09-12T04:52:54.697Z,2.80
2022-09-12T04:55:25.709Z,2.60
2022-09-12T04:57:54.651Z,3.50
2022-09-12T05:00:24.382Z,3.20
2022-09-12T05:02:53.541Z,3.20
2022-09-12T05:05:22.431Z,2.90
2022-09-12T05:07:51.526Z,3.00
2022-09-12T05:10:20.418Z,2.50
2022-09-12T05:12:49.627Z,2.90
2022-09-12T05:15:19.357Z,2.80
2022-09-12T05:17:48.276Z,3.40
2022-09-12T05:20:18.093Z,4.00
2022-09-12T05:22:47.344Z,3.20
2022-09-12T05:25:16.213Z,4.10
2022-09-12T05:27:49.926Z,3.90
2022-09-12T05:30:19.829Z,3.70
2022-09-12T05:32:49.392Z,3.30
2022-09-12T05:35:18.840Z,3.60
2022-09-12T05:37:47.422Z,2.70
2022-09-12T05:40:20.824Z,3.70
2022-09-12T05:42:49.817Z,3.10
2022-09-12T05:45:18.496Z,3.10
2022-09-12T05:47:47.487Z,2.90
2022-09-12T05:50:16.778Z,2.60
2022-09-12T05:52:46.017Z,3.00
2022-09-12T05:55:14.884Z,2.60
2022-09-12T05:57:46.532Z,3.00
2022-09-12T06:00:16.194Z,3.40
2022-09-12T06:02:45.046Z,3.20
2022-09-12T06:05:14.856Z,3.10
2022-09-12T06:07:43.833Z,3.30
2022-09-12T06:10:12.519Z,3.30
2022-09-12T06:12:41.307Z,2.80
2022-09-12T06:15:11.470Z,3.80
2022-09-12T06:17:40.231Z,3.70
2022-09-12T06:20:09.390Z,4.00
2022-09-12T06:22:38.381Z,3.80
2022-09-12T06:25:08.936Z,3.60
2022-09-12T06:27:37.823Z,3.40
2022-09-12T06:32:37.464Z,3.70
2022-09-12T06:35:07.289Z,3.50
2022-09-12T06:37:36.048Z,2.50
2022-09-12T06:40:05.885Z,3.10
2022-09-12T06:42:34.689Z,3.70
2022-09-12T06:45:03.748Z,3.40
2022-09-12T06:47:33.359Z,3.20
2022-09-12T06:50:02.254Z,2.90
2022-09-12T06:52:31.345Z,3.10
2022-09-12T06:55:00.124Z,2.90
2022-09-12T06:57:32.028Z,2.50
2022-09-12T07:00:01.498Z,2.90
2022-09-12T07:02:30.527Z,3.10
2022-09-12T07:04:59.476Z,3.10
2022-09-12T07:07:28.271Z,3.40
2022-09-12T07:09:59.003Z,3.00
2022-09-12T07:12:29.644Z,2.70
2022-09-12T07:14:58.319Z,3.20
2022-09-12T07:17:27.007Z,2.70
2022-09-12T07:19:55.891Z,2.90
2022-09-12T07:22:24.786Z,3.10
2022-09-12T07:24:56.003Z,2.70
2022-09-12T07:27:24.605Z,2.70
2022-09-12T07:29:53.290Z,2.70
2022-09-12T07:32:23.598Z,2.50
2022-09-12T07:37:21.804Z,2.50
2022-09-12T07:39:50.508Z,2.70
2022-09-12T07:42:19.178Z,2.90
2022-09-12T07:44:51.056Z,2.40
2022-09-12T07:47:20.142Z,2.50
2022-09-12T07:49:49.232Z,2.10
2022-09-12T07:52:19.858Z,2.70
2022-09-12T07:54:48.642Z,2.40
2022-09-12T07:57:17.336Z,2.30
2022-09-12T07:59:52.892Z,2.40
2022-09-12T08:02:23.343Z,2.10
2022-09-12T08:04:53.237Z,2.10
2022-09-12T08:07:22.212Z,2.20
2022-09-12T08:09:50.910Z,2.50
2022-09-12T08:12:20.714Z,2.20
2022-09-12T08:14:51.237Z,2.00
2022-09-12T08:17:20.148Z,2.20
2022-09-12T08:19:50.627Z,1.80
2022-09-12T08:22:22.318Z,2.30
2022-09-12T08:24:51.402Z,2.10
2022-09-12T08:27:20.509Z,2.40
2022-09-12T08:32:18.489Z,2.00
2022-09-12T08:34:47.601Z,1.90
2022-09-12T08:39:50.304Z,1.80
2022-09-12T08:42:42.175Z,1.80
2022-09-12T08:45:32.893Z,1.60
2022-09-12T08:48:11.371Z,1.80
2022-09-12T08:50:49.838Z,1.80
2022-09-12T08:53:32.344Z,1.60
2022-09-12T08:56:06.359Z,1.60
2022-09-12T08:58:41.607Z,1.60
2022-09-12T09:01:14.996Z,1.70
2022-09-12T09:04:06.261Z,1.90
2022-09-12T09:06:54.253Z,1.60
2022-09-12T09:09:33.591Z,1.70
2022-09-12T09:12:30.225Z,1.20
2022-09-12T09:15:22.565Z,1.50
2022-09-12T09:17:55.350Z,1.30
2022-09-12T09:20:31.110Z,1.50
2022-09-12T09:23:17.697Z,1.50
2022-09-12T09:25:50.585Z,1.60
2022-09-12T09:28:40.413Z,1.60
2022-09-12T09:31:17.551Z,1.60
2022-09-12T09:33:52.183Z,1.30
2022-09-12T09:36:25.390Z,1.30
2022-09-12T09:39:06.851Z,1.30
2022-09-12T09:42:24.073Z,1.00
2022-09-12T09:44:56.294Z,1.40
2022-09-12T09:47:25.129Z,1.20
2022-09-12T09:49:53.817Z,1.30
2022-09-12T09:52:27.947Z,1.20
2022-09-12T09:55:02.324Z,1.30
2022-09-12T09:57:36.674Z,1.00
2022-09-12T10:00:35.668Z,1.10
2022-09-12T10:05:53.208Z,1.20
2022-09-12T10:08:24.251Z,1.30
2022-09-12T10:10:58.779Z,1.10
2022-09-12T10:13:34.018Z,1.00
2022-09-12T10:16:06.627Z,0.90
2022-09-12T10:18:43.264Z,1.10
2022-09-12T10:21:23.929Z,1.20
2022-09-12T10:24:06.952Z,1.20
2022-09-12T10:26:40.249Z,1.00
2022-09-12T10:29:32.636Z,1.40
2022-09-12T10:32:08.508Z,1.30
2022-09-12T10:34:45.925Z,1.30
2022-09-12T10:37:40.113Z,1.20
2022-09-12T10:40:35.319Z,1.10
2022-09-12T10:43:17.933Z,1.20
2022-09-12T10:45:46.762Z,1.10
2022-09-12T10:51:02.934Z,1.50
2022-09-12T10:53:51.654Z,1.10
2022-09-12T10:56:33.171Z,1.30
2022-09-12T10:59:20.249Z,1.10
2022-09-12T11:01:58.096Z,1.40
2022-09-12T11:04:30.566Z,1.00
2022-09-12T11:07:06.727Z,1.60
2022-09-12T11:09:38.279Z,1.50
2022-09-12T11:12:30.214Z,1.40
2022-09-12T11:15:30.875Z,1.20
2022-09-12T11:18:11.713Z,1.50
2022-09-12T11:20:59.243Z,1.40
2022-09-12T11:24:06.020Z,1.40
2022-09-12T11:27:24.659Z,1.50
2022-09-12T11:33:17.764Z,1.50
2022-09-12T11:35:55.164Z,1.60
2022-09-12T11:38:51.170Z,1.10
2022-09-12T11:41:37.164Z,1.40
2022-09-12T11:44:22.746Z,1.30
2022-09-12T11:46:52.237Z,1.40
2022-09-12T11:49:40.795Z,1.40
2022-09-12T11:52:20.232Z,1.80
2022-09-12T11:54:53.881Z,1.50
2022-09-12T11:57:25.901Z,1.00
2022-09-12T12:00:04.116Z,1.50
2022-09-12T12:05:22.784Z,1.40
2022-09-12T12:07:57.715Z,1.30
2022-09-12T12:10:42.784Z,1.40
2022-09-12T12:13:56.344Z,1.70
2022-09-12T12:16:27.151Z,1.70
2022-09-12T12:19:15.095Z,1.20
2022-09-12T12:21:46.692Z,1.70
2022-09-12T12:24:29.537Z,1.40
2022-09-12T12:27:23.131Z,1.60
2022-09-12T12:29:51.817Z,1.20
2022-09-12T12:32:22.390Z,1.40
2022-09-12T12:34:51.242Z,1.40
2022-09-12T12:37:20.036Z,1.50
2022-09-12T12:39:51.454Z,1.70
2022-09-12T12:42:35.827Z,1.60
2022-09-12T12:45:04.920Z,1.60
2022-09-12T12:47:34.836Z,1.60
2022-09-12T12:50:21.546Z,1.70
2022-09-12T12:52:59.449Z,1.50
2022-09-12T12:55:34.307Z,1.70
2022-09-12T12:58:05.621Z,1.70
2022-09-12T13:00:39.805Z,1.50
2022-09-12T13:03:30.745Z,1.50
2022-09-12T13:06:08.901Z,1.50
2022-09-12T13:08:43.993Z,1.50
2022-09-12T13:11:30.695Z,1.60
2022-09-12T13:14:05.210Z,1.60
2022-09-12T13:16:38.314Z,1.70
2022-09-12T13:19:18.398Z,2.10
2022-09-12T13:22:07.842Z,1.50
2022-09-12T13:24:44.950Z,1.70
2022-09-12T13:27:23.247Z,1.70
2022-09-12T13:30:15.734Z,1.50
2022-09-12T13:32:44.766Z,1.90
2022-09-12T13:35:43.662Z,1.80
2022-09-12T13:38:26.584Z,1.60
2022-09-12T13:41:24.857Z,2.00
2022-09-12T13:43:53.646Z,1.80
2022-09-12T13:46:30.521Z,2.10
2022-09-12T13:49:02.463Z,2.00
2022-09-12T13:51:32.830Z,1.40
2022-09-12T13:54:05.837Z,1.30
2022-09-12T13:56:34.785Z,2.00
2022-09-12T13:59:03.783Z,1.80
2022-09-12T14:01:44.301Z,1.60
2022-09-12T14:04:44.264Z,2.20
2022-09-12T14:07:26.062Z,1.60
2022-09-12T14:10:00.413Z,1.90
2022-09-12T14:12:40.486Z,2.10
2022-09-12T14:15:28.031Z,1.90
2022-09-12T14:18:03.417Z,2.20
2022-09-12T14:20:36.797Z,2.00
2022-09-12T14:23:19.308Z,1.90
2022-09-12T14:25:49.422Z,1.80
2022-09-12T14:28:22.795Z,1.70
2022-09-12T14:31:05.551Z,1.90
2022-09-12T14:33:47.227Z,1.80
2022-09-12T14:36:37.213Z,1.70
2022-09-12T14:39:17.974Z,1.90
2022-09-12T14:41:46.967Z,1.50
2022-09-12T14:44:21.490Z,1.60
2022-09-12T14:46:51.815Z,1.50
2022-09-12T14:49:23.270Z,2.10
2022-09-12T14:51:51.955Z,2.10
2022-09-12T14:54:30.540Z,1.80
2022-09-12T14:57:05.091Z,1.70
2022-09-12T14:59:33.721Z,1.90
2022-09-12T15:02:17.318Z,1.70
2022-09-12T15:04:51.527Z,1.60
2022-09-12T15:07:39.972Z,1.80
2022-09-12T15:10:40.809Z,1.80
2022-09-12T15:13:09.301Z,2.00
2022-09-12T15:15:39.835Z,2.40
2022-09-12T15:18:09.124Z,1.50
2022-09-12T15:20:39.959Z,1.70
2022-09-12T15:23:23.594Z,1.90
2022-09-12T15:25:52.815Z,2.10
2022-09-12T15:28:24.240Z,2.20
2022-09-12T15:30:56.542Z,2.20
2022-09-12T15:33:26.227Z,2.20
2022-09-12T15:35:54.911Z,2.10
2022-09-12T15:38:26.482Z,2.00
2022-09-12T15:40:57.804Z,2.30
2022-09-12T15:43:26.594Z,1.80
2022-09-12T15:45:55.308Z,2.20
2022-09-12T15:48:24.267Z,2.00
2022-09-12T15:50:53.138Z,2.40
2022-09-12T15:53:22.071Z,2.30
2022-09-12T15:55:50.845Z,2.10
2022-09-12T15:58:20.013Z,1.90
2022-09-12T16:00:49.038Z,2.00
2022-09-12T16:03:23.720Z,2.30
2022-09-12T16:06:01.764Z,2.40
2022-09-12T16:08:32.440Z,1.90
2022-09-12T16:11:08.350Z,2.10
2022-09-12T16:13:37.240Z,2.50
2022-09-12T16:16:06.342Z,2.70
2022-09-12T16:18:34.858Z,2.20
2022-09-12T16:21:03.400Z,2.40
2022-09-12T16:23:32.390Z,2.40
2022-09-12T16:26:03.751Z,2.50
2022-09-12T16:28:35.498Z,1.80
2022-09-12T16:31:07.172Z,2.20
2022-09-12T16:33:37.681Z,2.20
2022-09-12T16:36:11.711Z,2.40
2022-09-12T16:38:48.537Z,2.60
2022-09-12T16:41:19.709Z,2.10
2022-09-12T16:43:49.194Z,2.40
2022-09-12T16:46:19.319Z,2.90
2022-09-12T16:48:52.439Z,2.30
2022-09-12T16:51:24.591Z,2.70
2022-09-12T16:53:55.220Z,2.30
2022-09-12T16:56:24.880Z,2.00
2022-09-12T17:01:24.877Z,2.10
2022-09-12T17:03:58.409Z,2.20
2022-09-12T17:06:28.062Z,1.70
2022-09-12T17:09:04.642Z,2.30
2022-09-12T17:11:38.361Z,2.20
2022-09-12T17:14:09.298Z,9.60
2022-09-12T17:16:47.978Z,6.40
2022-09-12T17:19:23.254Z,4.10
2022-09-12T17:21:52.341Z,2.70
2022-09-12T17:24:21.839Z,2.40
2022-09-12T17:26:52.645Z,2.60
2022-09-12T17:29:22.079Z,2.80
2022-09-12T17:31:50.866Z,2.40
2022-09-12T17:34:19.757Z,2.00
2022-09-12T17:36:48.670Z,2.50
2022-09-12T17:39:19.724Z,2.90
2022-09-12T17:41:56.843Z,3.20
2022-09-12T17:44:29.994Z,2.50
2022-09-12T17:46:58.646Z,2.20
2022-09-12T17:49:27.742Z,2.90
2022-09-12T17:51:56.633Z,2.30
2022-09-12T17:54:25.218Z,2.70
2022-09-12T17:56:55.980Z,2.50
2022-09-12T17:59:25.353Z,2.50
2022-09-12T18:02:12.461Z,2.30
2022-09-12T18:04:42.283Z,2.10
2022-09-12T18:07:10.867Z,2.60
2022-09-12T18:09:41.291Z,2.30
2022-09-12T18:12:11.108Z,2.20
2022-09-12T18:14:39.995Z,2.80
2022-09-12T18:17:11.479Z,3.10
2022-09-12T18:19:40.255Z,3.10
2022-09-12T18:22:09.657Z,3.10
2022-09-12T18:24:38.325Z,2.80
2022-09-12T18:27:07.414Z,2.80
2022-09-12T18:29:35.997Z,3.30
2022-09-12T18:32:04.490Z,3.00
2022-09-12T18:34:33.983Z,3.10
2022-09-12T18:37:05.462Z,3.10
2022-09-12T18:39:34.225Z,2.80
2022-09-12T18:42:02.917Z,2.60
2022-09-12T18:47:05.490Z,2.60
2022-09-12T18:49:34.091Z,3.40
2022-09-12T18:52:02.972Z,3.90
2022-09-12T18:54:31.465Z,3.50
2022-09-12T18:57:00.346Z,3.70
2022-09-12T18:59:28.927Z,3.20
2022-09-12T19:01:58.371Z,2.80
2022-09-12T19:04:27.323Z,2.80
2022-09-12T19:06:58.163Z,4.40
2022-09-12T19:09:26.739Z,3.90
2022-09-12T19:11:55.632Z,3.10
2022-09-12T19:14:26.830Z,4.00
2022-09-12T19:16:55.463Z,3.60
2022-09-12T19:19:24.361Z,3.40
2022-09-12T19:21:53.040Z,4.60
2022-09-12T19:24:22.138Z,3.50
2022-09-12T19:26:51.842Z,3.20
2022-09-12T19:29:20.426Z,3.50
2022-09-12T19:31:49.830Z,3.40
2022-09-12T19:34:19.850Z,3.80
2022-09-12T19:36:49.147Z,3.50
2022-09-12T19:39:20.022Z,3.80
2022-09-12T19:41:49.590Z,3.80
2022-09-12T19:44:19.602Z,3.20
2022-09-12T19:46:48.436Z,3.20
2022-09-12T19:49:17.183Z,3.50
2022-09-12T19:51:45.765Z,3.00
2022-09-12T19:54:14.627Z,3.80
2022-09-12T19:56:43.248Z,4.00
2022-09-12T19:59:12.234Z,3.40
2022-09-12T20:01:40.906Z,4.00
2022-09-12T20:04:09.910Z,4.20
2022-09-12T20:06:39.008Z,3.70
2022-09-12T20:09:07.589Z,3.10
2022-09-12T20:11:36.372Z,3.40
2022-09-12T20:14:04.958Z,3.00
2022-09-12T20:16:34.080Z,3.70
2022-09-12T20:19:07.440Z,3.20
2022-09-12T20:21:37.158Z,3.30
2022-09-12T20:24:07.679Z,3.10
2022-09-12T20:26:36.987Z,3.30
2022-09-12T20:29:06.804Z,2.90
2022-09-12T20:31:37.909Z,3.50
2022-09-12T20:34:07.575Z,3.30
2022-09-12T20:36:36.236Z,3.20
2022-09-12T20:39:05.128Z,3.00
2022-09-12T20:41:36.258Z,3.50
2022-09-12T20:44:04.752Z,3.30
2022-09-12T20:46:34.492Z,3.40
2022-09-12T20:49:04.350Z,2.90
2022-09-12T20:51:32.955Z,3.20
2022-09-12T20:54:04.206Z,3.40
2022-09-12T20:56:35.036Z,3.10
2022-09-12T20:59:04.749Z,2.70
2022-09-12T21:01:33.936Z,3.30
2022-09-12T21:04:03.343Z,3.10
2022-09-12T21:06:32.236Z,3.50
2022-09-12T21:09:01.745Z,3.50
2022-09-12T21:11:30.575Z,3.00
2022-09-12T21:13:59.430Z,3.40
2022-09-12T21:16:28.580Z,3.50
2022-09-12T21:18:59.874Z,4.10
2022-09-12T21:21:28.865Z,3.70
2022-09-12T21:24:05.414Z,4.20
2022-09-12T21:26:34.420Z,3.10
2022-09-12T21:29:03.829Z,3.30
2022-09-12T21:31:32.771Z,3.60
2022-09-12T21:34:01.500Z,3.30
2022-09-12T21:36:30.395Z,4.40
2022-09-12T21:38:59.798Z,4.00
2022-09-12T21:41:29.202Z,4.10
2022-09-12T21:43:58.094Z,3.30
2022-09-12T21:46:27.438Z,4.00
2022-09-12T21:48:57.522Z,5.20
2022-09-12T21:53:55.701Z,5.20
2022-09-12T21:56:24.791Z,5.30
2022-09-12T21:58:53.578Z,4.00
2022-09-12T22:01:22.392Z,3.70
2022-09-12T22:03:51.569Z,3.80
2022-09-12T22:06:22.536Z,3.10
2022-09-12T22:08:51.953Z,3.60
2022-09-12T22:11:21.519Z,3.80
2022-09-12T22:13:50.516Z,4.40
2022-09-12T22:16:19.853Z,3.30
2022-09-12T22:18:48.704Z,3.30
2022-09-12T22:21:20.411Z,3.10
2022-09-12T22:24:07.890Z,3.70
2022-09-12T22:26:42.426Z,3.60
2022-09-12T22:29:13.574Z,3.30
2022-09-12T22:31:43.407Z,3.20
2022-09-12T22:36:42.294Z,3.40
2022-09-12T22:39:12.406Z,3.40
2022-09-12T22:41:42.525Z,3.70
2022-09-12T22:44:12.668Z,3.60
2022-09-12T22:49:10.876Z,3.80
2022-09-12T22:51:40.960Z,3.40
2022-09-12T22:54:11.481Z,3.50
2022-09-12T22:56:40.981Z,4.20
2022-09-12T22:59:10.316Z,3.40
2022-09-12T23:01:40.182Z,3.20
2022-09-12T23:04:09.178Z,3.00
2022-09-12T23:06:37.991Z,3.30
2022-09-12T23:09:07.469Z,3.00
2022-09-12T23:11:37.312Z,2.70
2022-09-12T23:14:07.865Z,3.60
2022-09-12T23:16:36.823Z,2.70
2022-09-12T23:19:06.529Z,3.20
2022-09-12T23:21:35.707Z,3.00
2022-09-12T23:24:05.417Z,2.30
2022-09-12T23:26:35.747Z,2.50
2022-09-12T23:29:06.881Z,2.30
2022-09-12T23:31:37.435Z,2.40
2022-09-12T23:34:07.563Z,2.50
2022-09-12T23:36:37.875Z,1.90
2022-09-12T23:39:08.243Z,2.00
2022-09-12T23:41:38.992Z,2.30
2022-09-12T23:44:09.092Z,2.30
2022-09-12T23:46:39.672Z,2.80
2022-09-12T23:54:09.310Z,2.70
2022-09-12T23:56:40.118Z,2.60
2022-09-12T23:59:10.175Z,2.90
